Time;durP1;ratioP1;P1;durP2;ratioP2;P2;SDS_P1;SDS_P2;PMS_P1;PMS_P2;Temp;Humidity;BMP_temperature;BMP_pressure;BME280_temperature;BME280_humidity;BME280_pressure;Samples;Min_cycle;Max_cycle;Signal;HPM_P1;HPM_P2
2022/12/02 00:00:26;;;;;;;31.63;27.50;;;6.50;99.90;;;;;;5053604;28;20021;-63
2022/12/02 00:02:55;;;;;;;31.17;27.38;;;6.50;99.90;;;;;;5053155;28;20028;-63
2022/12/02 00:05:31;;;;;;;29.55;25.85;;;6.50;99.90;;;;;;5053378;28;20395;-63
2022/12/02 00:08:12;;;;;;;32.45;27.88;;;6.50;99.90;;;;;;5053171;28;20040;-63
2022/12/02 00:10:38;;;;;;;29.27;26.08;;;6.50;99.90;;;;;;5053247;28;20021;-63
2022/12/02 00:13:27;;;;;;;31.58;26.55;;;6.50;99.90;;;;;;5051924;28;20037;-63
2022/12/02 00:16:03;;;;;;;29.30;26.15;;;6.50;99.90;;;;;;5053569;28;20021;-63
2022/12/02 00:18:30;;;;;;;29.52;25.73;;;6.60;99.90;;;;;;5052915;28;20082;-63
2022/12/02 00:20:56;;;;;;;30.45;27.02;;;6.60;99.90;;;;;;5052945;28;20025;-63
2022/12/02 00:23:22;;;;;;;31.13;27.25;;;6.50;99.90;;;;;;5053311;28;20025;-63
2022/12/02 00:25:51;;;;;;;30.75;26.10;;;6.50;99.90;;;;;;5053109;28;20028;-63
2022/12/02 00:28:17;;;;;;;31.33;27.23;;;6.50;99.90;;;;;;5052887;28;20482;-64
2022/12/02 00:30:43;;;;;;;30.90;27.38;;;6.50;99.90;;;;;;5052778;28;20059;-63
2022/12/02 00:33:09;;;;;;;31.55;26.42;;;6.50;99.90;;;;;;5052536;28;20029;-63
2022/12/02 00:35:35;;;;;;;29.80;25.38;;;6.50;99.90;;;;;;5052951;28;20036;-63
2022/12/02 00:38:01;;;;;;;28.63;25.42;;;6.50;99.90;;;;;;5052759;28;20018;-64
2022/12/02 00:40:27;;;;;;;29.38;25.38;;;6.50;99.90;;;;;;5052471;28;20182;-64
2022/12/02 00:42:53;;;;;;;29.38;24.67;;;6.50;99.90;;;;;;5052615;28;20468;-64
2022/12/02 00:48:03;;;;;;;29.50;24.80;;;6.50;99.90;;;;;;5052582;28;20110;-63
2022/12/02 00:50:29;;;;;;;27.80;24.80;;;6.50;99.90;;;;;;5052490;28;20036;-63
2022/12/02 00:52:55;;;;;;;29.33;25.55;;;6.60;99.90;;;;;;5052269;28;20029;-63
2022/12/02 00:55:20;;;;;;;28.75;25.00;;;6.50;99.90;;;;;;5052361;28;20478;-63
2022/12/02 00:57:46;;;;;;;28.55;25.45;;;6.50;99.90;;;;;;5052289;28;20033;-63
2022/12/02 01:00:12;;;;;;;31.90;25.73;;;6.50;99.90;;;;;;5052636;28;20060;-64
2022/12/02 01:02:38;;;;;;;29.48;24.92;;;6.50;99.90;;;;;;5051678;28;20422;-64
2022/12/02 01:05:05;;;;;;;29.13;24.98;;;6.50;99.90;;;;;;5052307;28;20118;-64
2022/12/02 01:07:30;;;;;;;28.70;25.15;;;6.50;99.90;;;;;;5052066;28;20035;-63
2022/12/02 01:09:56;;;;;;;29.98;24.92;;;6.50;99.90;;;;;;5052117;28;20462;-64
2022/12/02 01:12:22;;;;;;;28.35;25.35;;;6.50;99.90;;;;;;5052148;28;20157;-64
2022/12/02 01:14:48;;;;;;;30.33;25.58;;;6.50;99.90;;;;;;5052054;28;20028;-63
2022/12/02 01:17:13;;;;;;;31.35;26.45;;;6.40;99.90;;;;;;5051711;28;20021;-63
2022/12/02 01:19:39;;;;;;;31.80;26.60;;;6.50;99.90;;;;;;5050828;28;20476;-64
2022/12/02 01:22:05;;;;;;;31.30;26.92;;;6.40;99.90;;;;;;5050327;28;20500;-63
2022/12/02 01:24:30;;;;;;;31.25;27.02;;;6.40;99.90;;;;;;5052186;28;20036;-64
2022/12/02 01:26:56;;;;;;;30.00;25.95;;;6.40;99.90;;;;;;5051951;28;20025;-64
2022/12/02 01:29:22;;;;;;;33.53;27.10;;;6.40;99.90;;;;;;5051751;28;20543;-63
2022/12/02 01:31:47;;;;;;;30.77;27.38;;;6.50;99.90;;;;;;5051442;28;20592;-63
2022/12/02 01:34:13;;;;;;;33.78;28.85;;;6.50;99.90;;;;;;5051599;28;20040;-63
2022/12/02 01:36:39;;;;;;;30.48;26.30;;;6.50;99.90;;;;;;5051310;28;20019;-64
2022/12/02 01:39:04;;;;;;;30.60;26.63;;;6.50;99.90;;;;;;5051958;28;20507;-63
2022/12/02 01:41:30;;;;;;;30.30;26.17;;;6.50;99.90;;;;;;5050279;28;20102;-64
2022/12/02 01:43:56;;;;;;;30.58;26.20;;;6.40;99.90;;;;;;5051577;28;20029;-64
2022/12/02 01:46:22;;;;;;;29.23;25.88;;;6.50;99.90;;;;;;5051336;28;20029;-64
2022/12/02 01:48:48;;;;;;;33.30;27.15;;;6.50;99.90;;;;;;5051381;28;20035;-64
2022/12/02 01:51:14;;;;;;;32.22;26.35;;;6.40;99.90;;;;;;5051491;28;20028;-64
2022/12/02 01:53:40;;;;;;;32.40;27.40;;;6.40;99.90;;;;;;5050065;28;20033;-64
2022/12/02 01:56:09;;;;;;;32.17;26.52;;;6.40;99.90;;;;;;5051342;28;20017;-64
2022/12/02 01:58:35;;;;;;;31.52;26.30;;;6.40;99.90;;;;;;5051222;28;20018;-64
2022/12/02 02:01:01;;;;;;;31.70;26.65;;;6.40;99.90;;;;;;5050772;28;20075;-64
2022/12/02 02:03:27;;;;;;;32.28;27.88;;;6.40;99.90;;;;;;5051579;28;20028;-64
2022/12/02 02:05:53;;;;;;;31.52;27.13;;;6.40;99.90;;;;;;5051159;28;20108;-64
2022/12/02 02:08:19;;;;;;;33.65;26.13;;;6.40;99.90;;;;;;5050716;28;20035;-64
2022/12/02 02:10:46;;;;;;;34.28;27.92;;;6.40;99.90;;;;;;5050786;28;20492;-63
2022/12/02 02:13:14;;;;;;;33.03;27.55;;;6.40;99.90;;;;;;5050581;28;20041;-63
2022/12/02 02:15:42;;;;;;;33.47;28.10;;;6.30;99.90;;;;;;5050547;28;20035;-64
2022/12/02 02:18:08;;;;;;;33.05;27.50;;;6.30;99.90;;;;;;5051086;28;20025;-63
2022/12/02 02:20:39;;;;;;;33.35;26.50;;;6.30;99.90;;;;;;5050725;28;20399;-63
2022/12/02 02:23:04;;;;;;;33.92;27.73;;;6.30;99.90;;;;;;5051048;28;20025;-63
2022/12/02 02:25:36;;;;;;;35.10;27.40;;;6.40;99.90;;;;;;5051081;28;20040;-63
2022/12/02 02:28:02;;;;;;;33.13;27.63;;;6.30;99.90;;;;;;5050656;28;20432;-64
2022/12/02 02:30:30;;;;;;;34.35;28.23;;;6.30;99.90;;;;;;5051410;28;20099;-64
2022/12/02 02:32:57;;;;;;;32.15;27.48;;;6.40;99.90;;;;;;5050737;28;20101;-64
2022/12/02 02:35:23;;;;;;;33.97;29.23;;;6.40;99.90;;;;;;5050908;28;20056;-63
2022/12/02 02:37:51;;;;;;;33.53;27.83;;;6.40;99.90;;;;;;5051516;28;20045;-63
2022/12/02 02:40:17;;;;;;;35.30;28.17;;;6.30;99.90;;;;;;5050644;28;20045;-63
2022/12/02 02:42:46;;;;;;;35.65;29.92;;;6.30;99.90;;;;;;5050632;28;20025;-64
2022/12/02 02:45:12;;;;;;;34.53;28.38;;;6.30;99.90;;;;;;5050971;28;20035;-63
2022/12/02 02:47:38;;;;;;;37.50;29.52;;;6.30;99.90;;;;;;5050752;28;20104;-64
2022/12/02 02:50:05;;;;;;;33.58;28.20;;;6.30;99.90;;;;;;5051332;28;20486;-63
2022/12/02 02:52:31;;;;;;;37.17;29.30;;;6.30;99.90;;;;;;5050810;28;20120;-63
2022/12/02 02:54:56;;;;;;;33.92;27.33;;;6.30;99.90;;;;;;5050741;28;20104;-63
2022/12/02 02:57:22;;;;;;;36.20;26.80;;;6.30;99.90;;;;;;5050526;28;20523;-63
2022/12/02 02:59:52;;;;;;;34.75;28.50;;;6.40;99.90;;;;;;5051027;28;20371;-63
2022/12/02 03:02:19;;;;;;;36.95;28.95;;;6.30;99.90;;;;;;5050366;28;20045;-63
2022/12/02 03:04:45;;;;;;;36.00;28.40;;;6.30;99.90;;;;;;5050741;28;20056;-63
2022/12/02 03:07:11;;;;;;;37.13;29.20;;;6.30;99.90;;;;;;5050834;28;20023;-63
2022/12/02 03:09:38;;;;;;;37.08;29.50;;;6.30;99.90;;;;;;5050583;28;20432;-63
2022/12/02 03:12:06;;;;;;;36.53;29.15;;;6.30;99.90;;;;;;5050491;28;20075;-63
2022/12/02 03:14:31;;;;;;;35.25;29.27;;;6.30;99.90;;;;;;5050686;28;20116;-64
2022/12/02 03:17:00;;;;;;;36.25;28.85;;;6.20;99.90;;;;;;5050512;28;20101;-63
2022/12/02 03:19:27;;;;;;;34.42;28.13;;;6.30;99.90;;;;;;5050565;28;20025;-63
2022/12/02 03:21:52;;;;;;;34.75;28.23;;;6.30;99.90;;;;;;5054030;28;20095;-63
2022/12/02 03:24:18;;;;;;;35.88;29.10;;;6.30;99.90;;;;;;5054401;28;20025;-63
2022/12/02 03:26:45;;;;;;;38.92;29.52;;;6.30;99.90;;;;;;5053710;28;20061;-63
2022/12/02 03:29:12;;;;;;;37.70;29.10;;;6.20;99.90;;;;;;5054059;28;20040;-63
2022/12/02 03:31:38;;;;;;;36.60;28.70;;;6.20;99.90;;;;;;5053785;28;20108;-63
2022/12/02 03:34:04;;;;;;;39.95;30.45;;;6.30;99.90;;;;;;5052213;28;20378;-63
2022/12/02 03:36:30;;;;;;;39.90;31.35;;;6.20;99.90;;;;;;5054050;28;20036;-63
2022/12/02 03:38:56;;;;;;;46.00;32.97;;;6.30;99.90;;;;;;5053748;28;20490;-63
2022/12/02 03:41:24;;;;;;;39.58;30.02;;;6.30;99.90;;;;;;5053140;28;20051;-62
2022/12/02 03:43:50;;;;;;;41.60;31.08;;;6.30;99.90;;;;;;5053890;28;20090;-62
2022/12/02 03:46:16;;;;;;;36.55;29.58;;;6.30;99.90;;;;;;5053361;28;20103;-62
2022/12/02 03:48:42;;;;;;;38.65;31.25;;;6.30;99.90;;;;;;5053931;28;20044;-63
2022/12/02 03:51:11;;;;;;;40.50;31.40;;;6.30;99.90;;;;;;5053580;28;20021;-62
2022/12/02 03:53:38;;;;;;;39.60;30.60;;;6.30;99.90;;;;;;5053559;28;20041;-63
2022/12/02 03:56:05;;;;;;;37.30;29.45;;;6.30;99.90;;;;;;5053053;28;20075;-62
2022/12/02 03:58:37;;;;;;;40.47;31.65;;;6.30;99.90;;;;;;5053220;28;20385;-62
2022/12/02 04:01:04;;;;;;;38.03;30.58;;;6.20;99.90;;;;;;5053029;28;20107;-63
2022/12/02 04:03:29;;;;;;;39.97;31.58;;;6.30;99.90;;;;;;5053523;28;20032;-63
2022/12/02 04:05:55;;;;;;;40.38;31.38;;;6.30;99.90;;;;;;5053350;28;20028;-63
2022/12/02 04:08:21;;;;;;;38.92;30.85;;;6.30;99.90;;;;;;5053269;28;20026;-63
2022/12/02 04:10:46;;;;;;;56.88;40.95;;;6.30;99.90;;;;;;5051462;28;20032;-62
2022/12/02 04:13:12;;;;;;;41.40;32.97;;;6.20;99.90;;;;;;5052191;28;20066;-63
2022/12/02 04:15:38;;;;;;;55.42;41.78;;;6.30;99.90;;;;;;5053042;28;20523;-63
2022/12/02 04:18:03;;;;;;;39.90;31.25;;;6.30;99.90;;;;;;5053081;28;20029;-62
2022/12/02 04:20:29;;;;;;;43.10;30.75;;;6.30;99.90;;;;;;5053082;28;20025;-63
2022/12/02 04:22:55;;;;;;;38.83;30.67;;;6.20;99.90;;;;;;5052958;28;20021;-63
2022/12/02 04:25:20;;;;;;;44.10;33.65;;;6.30;99.90;;;;;;5052609;28;20039;-63
2022/12/02 04:27:46;;;;;;;41.22;31.85;;;6.20;99.90;;;;;;5052839;28;20029;-63
2022/12/02 04:30:12;;;;;;;39.30;31.80;;;6.20;99.90;;;;;;5053033;28;20032;-62
2022/12/02 04:32:37;;;;;;;40.22;31.83;;;6.20;99.90;;;;;;5052248;28;20029;-63
2022/12/02 04:35:03;;;;;;;38.78;31.52;;;6.20;99.90;;;;;;5052755;28;20470;-63
2022/12/02 04:37:29;;;;;;;40.10;30.73;;;6.20;99.90;;;;;;5052551;28;20029;-63
2022/12/02 04:39:55;;;;;;;43.33;32.33;;;6.20;99.90;;;;;;5052521;28;20140;-63
2022/12/02 04:42:21;;;;;;;41.97;32.63;;;6.20;99.90;;;;;;5052565;28;20025;-62
2022/12/02 04:44:46;;;;;;;40.40;31.67;;;6.20;99.90;;;;;;5052310;28;20029;-63
2022/12/02 04:47:12;;;;;;;41.30;33.15;;;6.20;99.90;;;;;;5052393;28;20104;-62
2022/12/02 04:49:38;;;;;;;42.80;32.35;;;6.20;99.90;;;;;;5052465;28;20060;-63
2022/12/02 04:52:04;;;;;;;43.17;33.28;;;6.20;99.90;;;;;;5052576;28;20488;-63
2022/12/02 04:54:29;;;;;;;40.80;31.10;;;6.20;99.90;;;;;;5052006;28;20107;-63
2022/12/02 04:56:55;;;;;;;41.30;32.25;;;6.20;99.90;;;;;;5052259;28;20100;-63
2022/12/02 04:59:21;;;;;;;41.90;31.55;;;6.20;99.90;;;;;;5052024;28;20508;-63
2022/12/02 05:01:46;;;;;;;38.08;30.27;;;6.20;99.90;;;;;;5052086;28;20377;-63
2022/12/02 05:04:12;;;;;;;41.28;30.95;;;6.20;99.90;;;;;;5052134;28;20033;-62
2022/12/02 05:06:38;;;;;;;38.05;30.02;;;6.20;99.90;;;;;;5052243;28;20451;-63
2022/12/02 05:09:03;;;;;;;41.25;30.73;;;6.20;99.90;;;;;;5051901;28;20021;-62
2022/12/02 05:11:29;;;;;;;41.05;30.83;;;6.10;99.90;;;;;;5051956;28;20039;-62
2022/12/02 05:13:55;;;;;;;36.88;29.63;;;6.20;99.90;;;;;;5051864;28;20446;-63
2022/12/02 05:16:20;;;;;;;39.10;29.27;;;6.10;99.90;;;;;;5051838;28;20114;-62
2022/12/02 05:18:46;;;;;;;37.30;28.85;;;6.10;99.90;;;;;;5052432;28;20021;-62
2022/12/02 05:21:12;;;;;;;38.78;29.42;;;6.10;99.90;;;;;;5051791;28;20029;-63
2022/12/02 05:23:37;;;;;;;37.17;30.23;;;6.10;99.90;;;;;;5052046;28;20058;-63
2022/12/02 05:26:03;;;;;;;39.38;31.52;;;6.10;99.90;;;;;;5051284;28;20020;-63
2022/12/02 05:28:29;;;;;;;40.10;30.40;;;6.10;99.90;;;;;;5052029;28;20363;-62
2022/12/02 05:30:55;;;;;;;36.55;28.92;;;6.10;99.90;;;;;;5051506;28;20533;-62
2022/12/02 05:33:20;;;;;;;37.25;29.38;;;6.10;99.90;;;;;;5051503;28;20037;-63
2022/12/02 05:35:46;;;;;;;34.08;26.88;;;6.10;99.90;;;;;;5051763;28;20413;-63
2022/12/02 05:38:11;;;;;;;36.70;30.05;;;6.00;99.90;;;;;;5051273;28;20033;-63
2022/12/02 05:40:37;;;;;;;33.38;26.85;;;6.10;99.90;;;;;;5051248;28;20095;-63
2022/12/02 05:43:19;;;;;;;34.05;27.02;;;6.10;99.90;;;;;;5050689;28;20414;-62
2022/12/02 05:45:45;;;;;;;32.83;26.73;;;6.10;99.90;;;;;;5051365;28;20505;-62
2022/12/02 05:48:13;;;;;;;33.22;27.08;;;6.10;99.90;;;;;;5051761;28;20041;-62
2022/12/02 05:50:40;;;;;;;33.15;26.58;;;6.00;99.90;;;;;;5051414;28;20397;-63
2022/12/02 05:53:13;;;;;;;34.25;26.05;;;6.00;99.90;;;;;;5051257;28;20037;-63
2022/12/02 05:55:39;;;;;;;30.52;25.52;;;6.00;99.90;;;;;;5051776;28;20478;-63
2022/12/02 05:58:10;;;;;;;32.80;25.50;;;6.00;99.90;;;;;;5051168;28;20061;-63
2022/12/02 06:00:36;;;;;;;29.10;24.73;;;6.00;99.90;;;;;;5051080;28;20504;-63
2022/12/02 06:03:05;;;;;;;30.35;24.92;;;6.00;99.90;;;;;;5051438;28;20025;-62
2022/12/02 06:05:40;;;;;;;31.83;25.27;;;6.00;99.90;;;;;;5050898;28;20096;-63
2022/12/02 06:08:29;;;;;;;33.22;27.63;;;6.00;99.90;;;;;;5050006;28;20025;-62
2022/12/02 06:11:00;;;;;;;29.42;24.63;;;6.00;99.90;;;;;;5051354;28;20029;-63
2022/12/02 06:13:36;;;;;;;29.85;25.10;;;5.90;99.90;;;;;;5051351;28;20067;-62
2022/12/02 06:16:05;;;;;;;29.08;24.25;;;6.00;99.90;;;;;;5051019;28;20090;-63
2022/12/02 06:18:34;;;;;;;29.67;23.60;;;6.00;99.90;;;;;;5051098;28;20406;-62
2022/12/02 06:21:12;;;;;;;30.02;24.25;;;5.90;99.90;;;;;;5050678;28;20032;-63
2022/12/02 06:23:43;;;;;;;29.95;23.73;;;5.90;99.90;;;;;;5051392;28;20028;-63
2022/12/02 06:26:13;;;;;;;30.08;23.92;;;5.90;99.90;;;;;;5049805;28;20025;-63
2022/12/02 06:28:41;;;;;;;31.10;24.90;;;5.90;99.90;;;;;;5050993;28;20036;-62
2022/12/02 06:31:19;;;;;;;30.63;25.98;;;5.90;99.90;;;;;;5051015;28;20087;-63
2022/12/02 06:33:49;;;;;;;29.85;24.23;;;5.90;99.90;;;;;;5050867;28;20478;-63
2022/12/02 06:36:41;;;;;;;30.17;24.58;;;5.90;99.90;;;;;;5050537;28;20445;-62
2022/12/02 06:39:23;;;;;;;29.60;23.77;;;5.90;99.90;;;;;;5049827;28;20091;-62
2022/12/02 06:41:50;;;;;;;30.17;24.00;;;5.90;99.90;;;;;;5050915;28;20107;-62
2022/12/02 06:47:33;;;;;;;32.03;24.77;;;5.90;99.90;;;;;;5051437;28;20028;-62
2022/12/02 06:50:05;;;;;;;32.28;24.77;;;5.90;99.90;;;;;;5050371;28;20025;-62
2022/12/02 06:52:38;;;;;;;32.88;26.20;;;5.90;99.90;;;;;;5050698;28;20065;-62
2022/12/02 06:55:31;;;;;;;35.07;27.27;;;5.90;99.90;;;;;;5053064;28;20465;-62
2022/12/02 06:58:09;;;;;;;33.90;27.13;;;5.90;99.90;;;;;;5054281;28;21147;-62
2022/12/02 07:00:36;;;;;;;34.83;27.33;;;5.90;99.90;;;;;;5054329;28;20021;-62
2022/12/02 07:03:01;;;;;;;38.28;30.00;;;5.90;99.90;;;;;;5054993;28;20351;-62
2022/12/02 07:05:27;;;;;;;27.08;22.92;;;5.90;99.90;;;;;;5054065;28;20029;-62
2022/12/02 07:07:53;;;;;;;26.35;22.38;;;5.90;99.90;;;;;;5054546;28;20480;-62
2022/12/02 07:10:27;;;;;;;34.35;27.13;;;5.80;99.90;;;;;;5052927;28;20033;-62
2022/12/02 07:12:57;;;;;;;28.90;22.75;;;5.90;99.90;;;;;;5054105;28;20047;-63
2022/12/02 07:15:30;;;;;;;26.10;21.38;;;5.90;99.90;;;;;;5054162;28;20429;-62
2022/12/02 07:18:18;;;;;;;30.70;24.25;;;5.90;99.90;;;;;;5054256;28;20049;-62
2022/12/02 07:20:45;;;;;;;29.52;24.67;;;5.90;99.90;;;;;;5054229;28;20051;-62
2022/12/02 07:23:20;;;;;;;26.88;22.02;;;5.90;99.90;;;;;;5054507;28;20082;-62
2022/12/02 07:25:47;;;;;;;29.48;22.58;;;5.90;99.90;;;;;;5054581;28;20029;-62
2022/12/02 07:28:37;;;;;;;26.02;22.15;;;5.90;99.90;;;;;;5053953;28;20040;-62
2022/12/02 07:31:18;;;;;;;30.75;24.55;;;5.90;99.90;;;;;;5054352;28;20028;-62
2022/12/02 07:33:44;;;;;;;30.33;23.40;;;5.80;99.90;;;;;;5054280;28;20405;-62
2022/12/02 07:36:10;;;;;;;36.70;27.30;;;5.80;99.90;;;;;;5053684;28;20116;-62
2022/12/02 07:38:36;;;;;;;28.02;23.20;;;5.80;99.90;;;;;;5053753;28;20521;-62
2022/12/02 07:41:02;;;;;;;36.33;26.80;;;5.80;99.90;;;;;;5053872;28;20045;-62
2022/12/02 07:43:28;;;;;;;31.15;24.00;;;5.80;99.90;;;;;;5053691;28;20029;-62
2022/12/02 07:45:54;;;;;;;33.30;25.65;;;5.90;99.90;;;;;;5053328;28;20573;-62
2022/12/02 07:48:19;;;;;;;30.85;23.83;;;5.90;99.90;;;;;;5051950;28;20032;-61
2022/12/02 07:50:45;;;;;;;29.10;23.00;;;5.90;99.90;;;;;;5052415;28;20025;-62
2022/12/02 07:53:11;;;;;;;27.63;22.92;;;5.80;99.90;;;;;;5053285;28;20348;-62
2022/12/02 07:55:37;;;;;;;31.17;24.20;;;5.80;99.90;;;;;;5053493;28;20017;-62
2022/12/02 07:58:02;;;;;;;29.63;23.08;;;5.90;99.90;;;;;;5053384;28;20021;-63
2022/12/02 08:00:28;;;;;;;28.45;22.70;;;5.90;99.90;;;;;;5053207;28;20470;-62
2022/12/02 08:02:55;;;;;;;30.90;22.70;;;5.80;99.90;;;;;;5053112;28;20033;-62
2022/12/02 08:05:22;;;;;;;28.20;22.48;;;5.90;99.90;;;;;;5051869;28;20025;-62
2022/12/02 08:07:47;;;;;;;28.63;22.23;;;5.90;99.90;;;;;;5052951;28;20033;-62
2022/12/02 08:10:13;;;;;;;30.45;22.40;;;5.90;99.90;;;;;;5052740;28;20513;-62
2022/12/02 08:12:39;;;;;;;28.55;21.55;;;5.90;99.90;;;;;;5053463;28;20036;-62
2022/12/02 08:15:09;;;;;;;28.88;22.58;;;5.90;99.90;;;;;;5053282;28;20428;-63
2022/12/02 08:17:35;;;;;;;29.00;22.20;;;6.00;99.90;;;;;;5052655;28;20108;-64
2022/12/02 08:20:03;;;;;;;28.80;22.63;;;6.00;99.90;;;;;;5052858;28;20032;-63
2022/12/02 08:22:29;;;;;;;27.20;22.65;;;5.90;99.90;;;;;;5053114;28;20029;-63
2022/12/02 08:24:54;;;;;;;28.20;21.33;;;6.00;99.90;;;;;;5052903;28;20083;-62
2022/12/02 08:27:21;;;;;;;26.75;21.73;;;6.00;99.90;;;;;;5053167;28;20021;-62
2022/12/02 08:29:48;;;;;;;32.00;24.70;;;6.10;99.90;;;;;;5053111;28;20025;-63
2022/12/02 08:32:15;;;;;;;29.27;23.08;;;6.10;99.90;;;;;;5052303;28;20024;-63
2022/12/02 08:34:41;;;;;;;32.42;25.73;;;6.10;99.90;;;;;;5052673;28;20104;-62
2022/12/02 08:37:07;;;;;;;30.95;22.60;;;6.10;99.90;;;;;;5052531;28;20521;-63
2022/12/02 08:39:33;;;;;;;35.92;26.80;;;6.20;99.90;;;;;;5052298;28;20033;-63
2022/12/02 08:41:59;;;;;;;32.83;24.92;;;6.10;99.90;;;;;;5052367;28;20054;-63
2022/12/02 08:44:25;;;;;;;26.02;20.63;;;6.20;99.90;;;;;;5052473;28;20017;-62
2022/12/02 08:46:51;;;;;;;28.70;22.35;;;6.20;99.90;;;;;;5052000;28;20051;-63
2022/12/02 08:49:17;;;;;;;25.10;21.00;;;6.20;99.90;;;;;;5052632;28;20029;-63
2022/12/02 08:51:42;;;;;;;25.77;21.23;;;6.30;99.90;;;;;;5052326;28;20178;-62
2022/12/02 08:54:08;;;;;;;29.38;23.48;;;6.30;99.90;;;;;;5052378;28;20025;-62
2022/12/02 08:56:34;;;;;;;27.00;22.55;;;6.40;99.90;;;;;;5052381;28;20036;-63
2022/12/02 08:59:00;;;;;;;28.15;22.08;;;6.40;99.90;;;;;;5052535;28;20031;-63
2022/12/02 09:01:26;;;;;;;25.45;20.67;;;6.40;99.90;;;;;;5051640;28;20385;-63
2022/12/02 09:03:52;;;;;;;23.60;18.65;;;6.50;99.90;;;;;;5051890;28;20033;-62
2022/12/02 09:06:17;;;;;;;32.08;25.20;;;6.50;99.90;;;;;;5052320;28;20025;-63
2022/12/02 09:08:43;;;;;;;36.42;26.30;;;6.50;99.90;;;;;;5050713;28;20408;-62
2022/12/02 09:11:09;;;;;;;32.78;27.58;;;6.50;99.90;;;;;;5051887;28;20029;-63
2022/12/02 09:13:34;;;;;;;34.33;27.70;;;6.60;99.90;;;;;;5051807;28;20045;-62
2022/12/02 09:16:00;;;;;;;28.55;23.65;;;6.60;99.90;;;;;;5051905;28;20370;-62
2022/12/02 09:18:26;;;;;;;28.75;23.65;;;6.60;99.90;;;;;;5051739;28;20017;-63
2022/12/02 09:20:52;;;;;;;25.00;20.25;;;6.70;99.90;;;;;;5051640;28;20028;-63
2022/12/02 09:23:17;;;;;;;26.02;22.00;;;6.70;99.90;;;;;;5052198;28;20516;-63
2022/12/02 09:25:43;;;;;;;20.92;18.10;;;6.80;99.90;;;;;;5051698;28;20117;-63
2022/12/02 09:28:09;;;;;;;23.88;19.33;;;6.80;99.90;;;;;;5051407;28;20028;-62
2022/12/02 09:30:34;;;;;;;24.13;19.20;;;6.70;99.90;;;;;;5052005;28;20104;-62
2022/12/02 09:33:00;;;;;;;20.30;16.92;;;6.90;99.90;;;;;;5051343;28;20029;-62
2022/12/02 09:35:26;;;;;;;26.00;21.65;;;6.90;99.90;;;;;;5051101;28;20028;-62
2022/12/02 09:37:51;;;;;;;30.60;24.15;;;6.90;99.90;;;;;;5051868;28;20501;-62
2022/12/02 09:40:17;;;;;;;26.08;21.10;;;6.90;99.90;;;;;;5051360;28;20080;-62
2022/12/02 09:42:43;;;;;;;25.65;20.65;;;6.90;99.90;;;;;;5051151;28;20029;-63
2022/12/02 09:45:10;;;;;;;22.48;17.27;;;6.90;99.90;;;;;;5051587;28;20036;-62
2022/12/02 09:47:36;;;;;;;24.02;20.27;;;6.80;99.90;;;;;;5051255;28;20510;-62
2022/12/02 09:50:03;;;;;;;21.42;18.30;;;6.90;99.90;;;;;;5051494;28;20021;-62
2022/12/02 09:52:29;;;;;;;20.00;16.65;;;7.00;99.90;;;;;;5051239;28;20396;-63
2022/12/02 09:54:57;;;;;;;20.80;15.80;;;6.90;99.90;;;;;;5051344;28;20033;-63
2022/12/02 09:57:30;;;;;;;20.35;17.60;;;6.90;99.90;;;;;;5050765;28;20031;-63
2022/12/02 09:59:59;;;;;;;18.27;15.63;;;6.90;99.90;;;;;;5051020;28;20094;-63
2022/12/02 10:02:41;;;;;;;19.70;16.67;;;7.00;99.90;;;;;;5050886;28;20028;-63
2022/12/02 10:05:17;;;;;;;18.75;16.13;;;7.00;99.90;;;;;;5051235;28;20502;-62
2022/12/02 10:07:44;;;;;;;17.00;14.98;;;7.30;99.90;;;;;;5051726;28;20080;-63
2022/12/02 10:10:17;;;;;;;17.95;16.02;;;7.30;99.90;;;;;;5051021;28;20032;-63
2022/12/02 10:12:43;;;;;;;20.10;16.80;;;7.20;99.90;;;;;;5050516;28;20119;-63
2022/12/02 10:15:20;;;;;;;17.50;15.55;;;7.40;99.90;;;;;;5051137;28;20420;-63
2022/12/02 10:17:46;;;;;;;18.27;15.48;;;7.40;99.90;;;;;;5050913;28;20025;-63
2022/12/02 10:20:21;;;;;;;17.90;15.70;;;7.40;99.90;;;;;;5050927;28;20029;-63
2022/12/02 10:23:20;;;;;;;18.45;15.77;;;7.40;99.90;;;;;;5051281;28;20383;-63
2022/12/02 10:25:58;;;;;;;20.30;16.10;;;7.50;99.90;;;;;;5029031;28;20072;-63
2022/12/02 10:28:32;;;;;;;18.50;15.70;;;7.50;99.90;;;;;;5028322;28;20116;-63
2022/12/02 10:31:03;;;;;;;16.55;14.27;;;7.40;99.90;;;;;;5032639;28;20087;-63
2022/12/02 10:33:31;;;;;;;23.90;21.50;;;7.50;99.90;;;;;;5032414;28;20041;-65
2022/12/02 10:35:59;;;;;;;22.00;19.63;;;7.60;99.90;;;;;;5032442;28;20037;-63
2022/12/02 10:38:35;;;;;;;14.43;12.75;;;7.50;99.90;;;;;;5032882;28;20033;-62
2022/12/02 10:41:21;;;;;;;16.05;14.30;;;7.50;99.90;;;;;;5031629;28;20081;-62
2022/12/02 10:43:58;;;;;;;13.82;12.52;;;7.60;99.90;;;;;;5032405;28;20030;-62
2022/12/02 10:46:24;;;;;;;23.23;20.77;;;7.70;99.90;;;;;;5033133;28;20068;-63
2022/12/02 10:48:50;;;;;;;18.67;14.98;;;7.90;99.90;;;;;;5048715;28;20068;-63
2022/12/02 10:51:18;;;;;;;16.40;14.60;;;8.00;99.90;;;;;;5032165;28;20037;-63
2022/12/02 10:53:48;;;;;;;16.33;14.68;;;7.80;99.90;;;;;;5032502;28;20076;-62
2022/12/02 10:56:22;;;;;;;16.63;14.93;;;7.70;99.90;;;;;;5031924;28;20552;-62
2022/12/02 10:58:50;;;;;;;14.68;13.10;;;7.80;99.90;;;;;;5032254;28;20030;-63
2022/12/02 11:01:18;;;;;;;16.90;15.27;;;7.80;99.90;;;;;;5040886;28;20476;-62
2022/12/02 11:03:44;;;;;;;15.32;13.80;;;7.90;99.90;;;;;;5054384;28;20028;-63
2022/12/02 11:06:15;;;;;;;14.27;12.88;;;8.00;99.90;;;;;;5054343;28;20041;-62
2022/12/02 11:08:42;;;;;;;13.57;12.18;;;8.30;99.90;;;;;;5054260;28;20091;-62
2022/12/02 11:11:35;;;;;;;14.10;12.70;;;8.50;99.90;;;;;;5054648;28;20547;-63
2022/12/02 11:14:03;;;;;;;12.32;11.02;;;8.40;99.90;;;;;;5054122;28;20068;-63
2022/12/02 11:16:32;;;;;;;11.63;10.43;;;8.30;99.90;;;;;;5054388;28;20052;-63
2022/12/02 11:19:03;;;;;;;11.73;10.27;;;8.40;99.90;;;;;;5054787;28;20493;-62
2022/12/02 11:21:28;;;;;;;13.20;11.75;;;8.00;99.90;;;;;;5054218;28;20387;-62
2022/12/02 11:24:22;;;;;;;12.15;10.80;;;8.20;99.90;;;;;;5053772;28;20116;-62
2022/12/02 11:27:02;;;;;;;14.57;12.30;;;8.20;99.90;;;;;;5053930;28;20386;-62
2022/12/02 11:30:00;;;;;;;13.07;11.43;;;8.20;99.90;;;;;;5053692;28;20033;-63
2022/12/02 11:32:25;;;;;;;13.95;12.63;;;8.30;99.90;;;;;;5053784;28;20058;-62
2022/12/02 11:34:51;;;;;;;12.63;10.88;;;8.30;99.90;;;;;;5053950;28;20499;-62
2022/12/02 11:37:28;;;;;;;14.23;12.68;;;8.00;99.90;;;;;;5053794;28;20033;-62
2022/12/02 11:39:57;;;;;;;13.45;12.15;;;8.10;99.90;;;;;;5053120;28;20056;-62
2022/12/02 11:42:27;;;;;;;13.38;10.20;;;8.30;99.90;;;;;;5052775;28;20025;-62
2022/12/02 11:45:08;;;;;;;12.63;10.75;;;8.40;99.90;;;;;;5053822;28;20041;-62
2022/12/02 11:47:35;;;;;;;12.65;10.70;;;8.50;99.90;;;;;;5053311;28;20481;-62
2022/12/02 11:50:15;;;;;;;11.20;10.00;;;8.20;99.90;;;;;;5053359;28;20586;-63
2022/12/02 11:52:44;;;;;;;11.38;10.02;;;8.30;99.90;;;;;;5054273;28;20065;-62
2022/12/02 11:55:18;;;;;;;17.55;13.80;;;8.10;99.90;;;;;;5053791;28;20100;-62
2022/12/02 11:57:50;;;;;;;10.75;9.68;;;8.20;99.90;;;;;;5053375;28;20166;-62
2022/12/02 12:00:24;;;;;;;20.40;15.30;;;8.10;99.90;;;;;;5053131;28;20351;-63
2022/12/02 12:03:12;;;;;;;13.98;12.48;;;8.30;99.90;;;;;;5033396;28;20387;-62
2022/12/02 12:06:02;;;;;;;18.52;16.58;;;8.40;99.90;;;;;;5033578;28;20041;-63
2022/12/02 12:08:28;;;;;;;11.23;9.93;;;8.50;99.90;;;;;;5033376;28;20496;-62
2022/12/02 12:11:21;;;;;;;11.43;10.27;;;8.50;99.90;;;;;;5033202;28;20112;-62
2022/12/02 12:14:12;;;;;;;15.90;14.20;;;8.20;99.90;;;;;;5032950;28;20405;-62
2022/12/02 12:16:45;;;;;;;31.02;24.77;;;8.20;99.90;;;;;;5033010;28;20036;-62
2022/12/02 12:19:10;;;;;;;11.27;10.18;;;8.30;99.90;;;;;;5032912;28;20490;-62
2022/12/02 12:21:54;;;;;;;12.95;11.63;;;8.40;99.90;;;;;;5033207;28;20036;-62
2022/12/02 12:24:23;;;;;;;12.77;11.48;;;8.30;99.90;;;;;;5032463;28;20072;-62
2022/12/02 12:26:55;;;;;;;13.13;10.95;;;8.30;99.90;;;;;;5033191;28;20467;-63
2022/12/02 12:29:24;;;;;;;14.15;12.43;;;8.30;99.90;;;;;;5032676;28;20029;-62
2022/12/02 12:31:50;;;;;;;13.02;10.25;;;8.20;99.90;;;;;;5032789;28;20029;-62
2022/12/02 12:34:15;;;;;;;13.50;10.57;;;8.30;99.90;;;;;;5032683;28;20029;-63
2022/12/02 12:36:43;;;;;;;11.40;9.70;;;8.30;99.90;;;;;;5045669;28;20450;-62
2022/12/02 12:39:09;;;;;;;11.50;10.27;;;8.30;99.90;;;;;;5053141;28;20035;-62
2022/12/02 12:41:35;;;;;;;11.00;9.90;;;8.30;99.90;;;;;;5052854;28;20517;-62
2022/12/02 12:44:02;;;;;;;12.27;10.98;;;8.40;99.90;;;;;;5052829;28;20265;-63
2022/12/02 12:46:27;;;;;;;9.80;8.65;;;8.70;99.90;;;;;;5052680;28;20052;-63
2022/12/02 12:48:53;;;;;;;14.27;12.43;;;8.20;99.90;;;;;;5053335;28;20140;-63
2022/12/02 12:51:19;;;;;;;19.38;15.55;;;8.20;99.90;;;;;;5052269;28;20025;-62